sensor_id;sensor_type;location;lat;lon;timestamp;P1;durP1;ratioP1;P2;durP2;ratioP2
60969;SDS011;46841;48.938;9.502;2023-03-01T00:01:19;40.30;;;17.67;;
60969;SDS011;46841;48.938;9.502;2023-03-01T00:03:45;49.00;;;19.13;;
60969;SDS011;46841;48.938;9.502;2023-03-01T00:06:11;43.78;;;18.85;;
60969;SDS011;46841;48.938;9.502;2023-03-01T00:08:36;41.03;;;17.88;;
60969;SDS011;46841;48.938;9.502;2023-03-01T00:13:33;46.47;;;20.05;;
60969;SDS011;46841;48.938;9.502;2023-03-01T00:15:58;41.53;;;18.55;;
60969;SDS011;46841;48.938;9.502;2023-03-01T00:18:24;43.83;;;19.58;;
60969;SDS011;46841;48.938;9.502;2023-03-01T00:20:50;45.92;;;20.27;;
60969;SDS011;46841;48.938;9.502;2023-03-01T00:23:16;41.78;;;20.35;;
60969;SDS011;46841;48.938;9.502;2023-03-01T00:25:42;44.83;;;20.98;;
60969;SDS011;46841;48.938;9.502;2023-03-01T00:28:07;50.40;;;19.38;;
60969;SDS011;46841;48.938;9.502;2023-03-01T00:30:32;49.15;;;18.70;;
60969;SDS011;46841;48.938;9.502;2023-03-01T00:32:58;54.05;;;22.15;;
60969;SDS011;46841;48.938;9.502;2023-03-01T00:35:23;44.55;;;20.35;;
60969;SDS011;46841;48.938;9.502;2023-03-01T00:37:48;51.80;;;21.48;;
60969;SDS011;46841;48.938;9.502;2023-03-01T00:40:18;47.50;;;20.30;;
60969;SDS011;46841;48.938;9.502;2023-03-01T00:42:44;46.72;;;19.83;;
60969;SDS011;46841;48.938;9.502;2023-03-01T00:45:09;47.25;;;20.67;;
60969;SDS011;46841;48.938;9.502;2023-03-01T00:47:34;46.75;;;20.63;;
60969;SDS011;46841;48.938;9.502;2023-03-01T00:50:00;49.00;;;22.33;;
60969;SDS011;46841;48.938;9.502;2023-03-01T00:52:25;41.88;;;20.15;;
60969;SDS011;46841;48.938;9.502;2023-03-01T00:54:52;49.15;;;21.00;;
60969;SDS011;46841;48.938;9.502;2023-03-01T00:57:17;51.58;;;22.35;;
60969;SDS011;46841;48.938;9.502;2023-03-01T00:59:43;50.42;;;21.88;;
60969;SDS011;46841;48.938;9.502;2023-03-01T01:02:08;48.97;;;21.63;;
60969;SDS011;46841;48.938;9.502;2023-03-01T01:04:33;45.22;;;20.42;;
60969;SDS011;46841;48.938;9.502;2023-03-01T01:06:59;49.63;;;21.30;;
60969;SDS011;46841;48.938;9.502;2023-03-01T01:09:24;53.75;;;21.90;;
60969;SDS011;46841;48.938;9.502;2023-03-01T01:11:50;53.33;;;20.73;;
60969;SDS011;46841;48.938;9.502;2023-03-01T01:14:16;46.42;;;19.80;;
60969;SDS011;46841;48.938;9.502;2023-03-01T01:16:42;45.45;;;20.33;;
60969;SDS011;46841;48.938;9.502;2023-03-01T01:19:07;50.80;;;20.90;;
60969;SDS011;46841;48.938;9.502;2023-03-01T01:21:32;51.20;;;23.40;;
60969;SDS011;46841;48.938;9.502;2023-03-01T01:23:58;58.35;;;21.48;;
60969;SDS011;46841;48.938;9.502;2023-03-01T01:26:31;46.47;;;21.05;;
60969;SDS011;46841;48.938;9.502;2023-03-01T01:28:57;52.08;;;21.52;;
60969;SDS011;46841;48.938;9.502;2023-03-01T01:31:23;57.10;;;22.48;;
60969;SDS011;46841;48.938;9.502;2023-03-01T01:33:49;56.05;;;22.95;;
60969;SDS011;46841;48.938;9.502;2023-03-01T01:36:14;46.47;;;21.25;;
60969;SDS011;46841;48.938;9.502;2023-03-01T01:38:40;49.60;;;20.95;;
60969;SDS011;46841;48.938;9.502;2023-03-01T01:41:08;51.63;;;21.13;;
60969;SDS011;46841;48.938;9.502;2023-03-01T01:43:35;47.72;;;21.55;;
60969;SDS011;46841;48.938;9.502;2023-03-01T01:46:01;46.95;;;21.58;;
60969;SDS011;46841;48.938;9.502;2023-03-01T01:48:29;52.88;;;21.35;;
60969;SDS011;46841;48.938;9.502;2023-03-01T01:51:05;52.25;;;21.02;;
60969;SDS011;46841;48.938;9.502;2023-03-01T01:53:31;52.30;;;23.23;;
60969;SDS011;46841;48.938;9.502;2023-03-01T01:55:58;55.70;;;21.75;;
60969;SDS011;46841;48.938;9.502;2023-03-01T01:58:25;47.40;;;21.48;;
60969;SDS011;46841;48.938;9.502;2023-03-01T02:00:52;53.05;;;22.27;;
60969;SDS011;46841;48.938;9.502;2023-03-01T02:03:19;47.47;;;20.63;;
60969;SDS011;46841;48.938;9.502;2023-03-01T02:06:03;50.42;;;21.98;;
60969;SDS011;46841;48.938;9.502;2023-03-01T02:08:29;51.35;;;22.38;;
60969;SDS011;46841;48.938;9.502;2023-03-01T02:10:55;51.28;;;21.77;;
60969;SDS011;46841;48.938;9.502;2023-03-01T02:13:21;51.70;;;21.95;;
60969;SDS011;46841;48.938;9.502;2023-03-01T02:15:46;47.35;;;22.52;;
60969;SDS011;46841;48.938;9.502;2023-03-01T02:18:13;52.55;;;22.52;;
60969;SDS011;46841;48.938;9.502;2023-03-01T02:23:17;52.67;;;22.30;;
60969;SDS011;46841;48.938;9.502;2023-03-01T02:28:40;55.08;;;22.55;;
60969;SDS011;46841;48.938;9.502;2023-03-01T02:31:06;47.00;;;21.50;;
60969;SDS011;46841;48.938;9.502;2023-03-01T02:33:50;48.95;;;21.90;;
60969;SDS011;46841;48.938;9.502;2023-03-01T02:36:21;57.70;;;25.20;;
60969;SDS011;46841;48.938;9.502;2023-03-01T02:38:48;50.85;;;21.67;;
60969;SDS011;46841;48.938;9.502;2023-03-01T02:41:15;51.47;;;21.93;;
60969;SDS011;46841;48.938;9.502;2023-03-01T02:43:41;53.63;;;21.58;;
60969;SDS011;46841;48.938;9.502;2023-03-01T02:46:08;51.47;;;22.83;;
60969;SDS011;46841;48.938;9.502;2023-03-01T02:48:47;53.60;;;24.00;;
60969;SDS011;46841;48.938;9.502;2023-03-01T02:53:42;49.30;;;21.90;;
60969;SDS011;46841;48.938;9.502;2023-03-01T02:56:11;54.50;;;21.88;;
60969;SDS011;46841;48.938;9.502;2023-03-01T03:01:12;49.45;;;20.38;;
60969;SDS011;46841;48.938;9.502;2023-03-01T03:03:40;47.75;;;21.65;;
60969;SDS011;46841;48.938;9.502;2023-03-01T03:06:06;53.73;;;22.70;;
60969;SDS011;46841;48.938;9.502;2023-03-01T03:08:31;55.20;;;22.27;;
60969;SDS011;46841;48.938;9.502;2023-03-01T03:10:57;50.83;;;22.60;;
60969;SDS011;46841;48.938;9.502;2023-03-01T03:13:22;51.33;;;22.10;;
60969;SDS011;46841;48.938;9.502;2023-03-01T03:15:53;46.95;;;20.88;;
60969;SDS011;46841;48.938;9.502;2023-03-01T03:18:19;48.80;;;21.67;;
60969;SDS011;46841;48.938;9.502;2023-03-01T03:20:44;52.42;;;22.55;;
60969;SDS011;46841;48.938;9.502;2023-03-01T03:23:10;53.65;;;22.75;;
60969;SDS011;46841;48.938;9.502;2023-03-01T03:25:35;60.15;;;27.20;;
60969;SDS011;46841;48.938;9.502;2023-03-01T03:28:03;49.83;;;21.30;;
60969;SDS011;46841;48.938;9.502;2023-03-01T03:30:34;50.45;;;21.58;;
60969;SDS011;46841;48.938;9.502;2023-03-01T03:33:00;49.03;;;21.83;;
60969;SDS011;46841;48.938;9.502;2023-03-01T03:35:29;46.03;;;20.30;;
60969;SDS011;46841;48.938;9.502;2023-03-01T03:37:55;49.13;;;21.98;;
60969;SDS011;46841;48.938;9.502;2023-03-01T03:40:27;50.60;;;22.77;;
60969;SDS011;46841;48.938;9.502;2023-03-01T03:42:52;54.33;;;22.27;;
60969;SDS011;46841;48.938;9.502;2023-03-01T03:45:17;51.33;;;21.05;;
60969;SDS011;46841;48.938;9.502;2023-03-01T03:47:43;54.08;;;23.08;;
60969;SDS011;46841;48.938;9.502;2023-03-01T03:50:11;52.60;;;22.58;;
60969;SDS011;46841;48.938;9.502;2023-03-01T03:52:37;48.28;;;21.05;;
60969;SDS011;46841;48.938;9.502;2023-03-01T03:55:03;56.13;;;22.58;;
60969;SDS011;46841;48.938;9.502;2023-03-01T03:57:28;50.03;;;22.45;;
60969;SDS011;46841;48.938;9.502;2023-03-01T03:59:53;49.47;;;21.90;;
60969;SDS011;46841;48.938;9.502;2023-03-01T04:02:19;50.28;;;21.90;;
60969;SDS011;46841;48.938;9.502;2023-03-01T04:04:49;61.40;;;24.45;;
60969;SDS011;46841;48.938;9.502;2023-03-01T04:07:15;56.50;;;22.73;;
60969;SDS011;46841;48.938;9.502;2023-03-01T04:09:41;54.83;;;21.92;;
60969;SDS011;46841;48.938;9.502;2023-03-01T04:12:07;47.80;;;21.30;;
60969;SDS011;46841;48.938;9.502;2023-03-01T04:14:33;53.92;;;22.35;;
60969;SDS011;46841;48.938;9.502;2023-03-01T04:16:58;52.60;;;21.45;;
60969;SDS011;46841;48.938;9.502;2023-03-01T04:19:23;50.05;;;22.13;;
60969;SDS011;46841;48.938;9.502;2023-03-01T04:21:49;50.70;;;21.13;;
60969;SDS011;46841;48.938;9.502;2023-03-01T04:24:14;50.35;;;21.92;;
60969;SDS011;46841;48.938;9.502;2023-03-01T04:26:39;50.45;;;22.48;;
60969;SDS011;46841;48.938;9.502;2023-03-01T04:29:05;51.42;;;22.08;;
60969;SDS011;46841;48.938;9.502;2023-03-01T04:31:30;61.92;;;26.23;;
60969;SDS011;46841;48.938;9.502;2023-03-01T04:33:55;53.58;;;23.95;;
60969;SDS011;46841;48.938;9.502;2023-03-01T04:36:24;48.33;;;22.17;;
60969;SDS011;46841;48.938;9.502;2023-03-01T04:38:50;53.47;;;23.13;;
60969;SDS011;46841;48.938;9.502;2023-03-01T04:41:17;51.53;;;21.98;;
60969;SDS011;46841;48.938;9.502;2023-03-01T04:43:42;56.45;;;26.08;;
60969;SDS011;46841;48.938;9.502;2023-03-01T04:46:11;53.45;;;22.92;;
60969;SDS011;46841;48.938;9.502;2023-03-01T04:48:37;47.88;;;21.55;;
60969;SDS011;46841;48.938;9.502;2023-03-01T04:51:02;54.58;;;22.30;;
60969;SDS011;46841;48.938;9.502;2023-03-01T04:53:28;51.08;;;22.83;;
60969;SDS011;46841;48.938;9.502;2023-03-01T04:55:54;60.28;;;23.00;;
60969;SDS011;46841;48.938;9.502;2023-03-01T04:58:22;56.47;;;23.52;;
60969;SDS011;46841;48.938;9.502;2023-03-01T05:00:47;53.00;;;23.85;;
60969;SDS011;46841;48.938;9.502;2023-03-01T05:03:12;61.35;;;24.25;;
60969;SDS011;46841;48.938;9.502;2023-03-01T05:05:43;55.33;;;24.17;;
60969;SDS011;46841;48.938;9.502;2023-03-01T05:08:09;56.13;;;23.70;;
60969;SDS011;46841;48.938;9.502;2023-03-01T05:10:43;52.22;;;21.27;;
60969;SDS011;46841;48.938;9.502;2023-03-01T05:13:08;55.27;;;23.50;;
60969;SDS011;46841;48.938;9.502;2023-03-01T05:15:34;46.78;;;21.55;;
60969;SDS011;46841;48.938;9.502;2023-03-01T05:18:01;49.53;;;21.98;;
60969;SDS011;46841;48.938;9.502;2023-03-01T05:20:27;55.33;;;25.27;;
60969;SDS011;46841;48.938;9.502;2023-03-01T05:22:55;58.50;;;24.65;;
60969;SDS011;46841;48.938;9.502;2023-03-01T05:25:20;56.97;;;23.58;;
60969;SDS011;46841;48.938;9.502;2023-03-01T05:27:46;50.35;;;22.33;;
60969;SDS011;46841;48.938;9.502;2023-03-01T05:30:12;53.30;;;23.73;;
60969;SDS011;46841;48.938;9.502;2023-03-01T05:32:41;53.92;;;22.80;;
60969;SDS011;46841;48.938;9.502;2023-03-01T05:35:06;55.60;;;25.23;;
60969;SDS011;46841;48.938;9.502;2023-03-01T05:37:32;58.25;;;25.45;;
60969;SDS011;46841;48.938;9.502;2023-03-01T05:39:57;55.00;;;23.05;;
60969;SDS011;46841;48.938;9.502;2023-03-01T05:42:22;62.15;;;25.15;;
60969;SDS011;46841;48.938;9.502;2023-03-01T05:44:48;61.08;;;25.55;;
60969;SDS011;46841;48.938;9.502;2023-03-01T05:47:13;60.35;;;26.08;;
60969;SDS011;46841;48.938;9.502;2023-03-01T05:49:38;58.28;;;25.20;;
60969;SDS011;46841;48.938;9.502;2023-03-01T05:52:03;58.22;;;25.38;;
60969;SDS011;46841;48.938;9.502;2023-03-01T05:54:29;63.70;;;25.55;;
60969;SDS011;46841;48.938;9.502;2023-03-01T05:56:54;58.70;;;26.38;;
60969;SDS011;46841;48.938;9.502;2023-03-01T05:59:19;60.15;;;25.52;;
60969;SDS011;46841;48.938;9.502;2023-03-01T06:01:45;61.80;;;25.85;;
60969;SDS011;46841;48.938;9.502;2023-03-01T06:04:10;61.35;;;26.30;;
60969;SDS011;46841;48.938;9.502;2023-03-01T06:06:36;68.30;;;26.92;;
60969;SDS011;46841;48.938;9.502;2023-03-01T06:09:04;69.65;;;27.13;;
60969;SDS011;46841;48.938;9.502;2023-03-01T06:11:33;65.57;;;24.90;;
60969;SDS011;46841;48.938;9.502;2023-03-01T06:13:58;64.13;;;27.92;;
60969;SDS011;46841;48.938;9.502;2023-03-01T06:16:23;59.13;;;24.50;;
60969;SDS011;46841;48.938;9.502;2023-03-01T06:18:49;68.45;;;26.02;;
60969;SDS011;46841;48.938;9.502;2023-03-01T06:21:14;62.65;;;25.02;;
60969;SDS011;46841;48.938;9.502;2023-03-01T06:23:39;56.75;;;23.95;;
60969;SDS011;46841;48.938;9.502;2023-03-01T06:26:06;59.45;;;23.98;;
60969;SDS011;46841;48.938;9.502;2023-03-01T06:28:31;53.50;;;22.02;;
60969;SDS011;46841;48.938;9.502;2023-03-01T06:30:56;64.82;;;24.60;;
60969;SDS011;46841;48.938;9.502;2023-03-01T06:33:22;56.63;;;24.58;;
60969;SDS011;46841;48.938;9.502;2023-03-01T06:35:49;63.95;;;25.45;;
60969;SDS011;46841;48.938;9.502;2023-03-01T06:38:15;58.10;;;24.10;;
60969;SDS011;46841;48.938;9.502;2023-03-01T06:43:07;60.67;;;22.47;;
60969;SDS011;46841;48.938;9.502;2023-03-01T06:45:36;71.50;;;25.95;;
60969;SDS011;46841;48.938;9.502;2023-03-01T06:48:05;67.70;;;26.50;;
60969;SDS011;46841;48.938;9.502;2023-03-01T06:50:31;61.42;;;24.25;;
60969;SDS011;46841;48.938;9.502;2023-03-01T06:52:56;62.92;;;26.40;;
60969;SDS011;46841;48.938;9.502;2023-03-01T06:55:22;66.88;;;27.65;;
60969;SDS011;46841;48.938;9.502;2023-03-01T06:57:47;70.07;;;25.98;;
60969;SDS011;46841;48.938;9.502;2023-03-01T07:00:12;65.97;;;25.67;;
60969;SDS011;46841;48.938;9.502;2023-03-01T07:02:38;64.90;;;25.95;;
60969;SDS011;46841;48.938;9.502;2023-03-01T07:05:03;62.97;;;26.48;;
60969;SDS011;46841;48.938;9.502;2023-03-01T07:07:29;65.47;;;25.17;;
60969;SDS011;46841;48.938;9.502;2023-03-01T07:09:55;66.88;;;25.02;;
60969;SDS011;46841;48.938;9.502;2023-03-01T07:12:20;60.45;;;25.35;;
60969;SDS011;46841;48.938;9.502;2023-03-01T07:14:45;62.33;;;24.55;;
60969;SDS011;46841;48.938;9.502;2023-03-01T07:17:10;70.15;;;26.80;;
60969;SDS011;46841;48.938;9.502;2023-03-01T07:19:36;66.93;;;24.95;;
60969;SDS011;46841;48.938;9.502;2023-03-01T07:22:02;69.88;;;25.40;;
60969;SDS011;46841;48.938;9.502;2023-03-01T07:24:29;66.75;;;26.08;;
60969;SDS011;46841;48.938;9.502;2023-03-01T07:26:54;61.05;;;23.75;;
60969;SDS011;46841;48.938;9.502;2023-03-01T07:29:20;64.82;;;26.15;;
60969;SDS011;46841;48.938;9.502;2023-03-01T07:31:45;60.78;;;25.10;;
60969;SDS011;46841;48.938;9.502;2023-03-01T07:34:10;62.55;;;25.67;;
60969;SDS011;46841;48.938;9.502;2023-03-01T07:36:36;64.22;;;26.05;;
60969;SDS011;46841;48.938;9.502;2023-03-01T07:39:01;62.33;;;24.92;;
60969;SDS011;46841;48.938;9.502;2023-03-01T07:41:28;65.87;;;26.03;;
60969;SDS011;46841;48.938;9.502;2023-03-01T07:43:53;65.28;;;25.02;;
60969;SDS011;46841;48.938;9.502;2023-03-01T07:46:18;63.08;;;25.55;;
60969;SDS011;46841;48.938;9.502;2023-03-01T07:48:44;67.55;;;29.30;;
60969;SDS011;46841;48.938;9.502;2023-03-01T07:51:09;64.97;;;25.90;;
60969;SDS011;46841;48.938;9.502;2023-03-01T07:53:35;68.30;;;25.55;;
60969;SDS011;46841;48.938;9.502;2023-03-01T07:56:04;67.60;;;26.60;;
60969;SDS011;46841;48.938;9.502;2023-03-01T07:58:30;67.20;;;26.30;;
60969;SDS011;46841;48.938;9.502;2023-03-01T08:00:55;69.50;;;28.20;;
60969;SDS011;46841;48.938;9.502;2023-03-01T08:03:20;65.18;;;26.90;;
60969;SDS011;46841;48.938;9.502;2023-03-01T08:05:45;67.07;;;26.15;;
60969;SDS011;46841;48.938;9.502;2023-03-01T08:08:11;72.13;;;27.05;;
60969;SDS011;46841;48.938;9.502;2023-03-01T08:10:36;61.33;;;26.40;;
60969;SDS011;46841;48.938;9.502;2023-03-01T08:13:01;57.30;;;24.75;;
60969;SDS011;46841;48.938;9.502;2023-03-01T08:15:26;60.25;;;25.10;;
60969;SDS011;46841;48.938;9.502;2023-03-01T08:17:52;60.88;;;24.95;;
60969;SDS011;46841;48.938;9.502;2023-03-01T08:20:17;61.65;;;25.80;;
60969;SDS011;46841;48.938;9.502;2023-03-01T08:22:42;61.28;;;25.30;;
60969;SDS011;46841;48.938;9.502;2023-03-01T08:25:08;65.10;;;25.90;;
60969;SDS011;46841;48.938;9.502;2023-03-01T08:27:33;59.85;;;25.80;;
60969;SDS011;46841;48.938;9.502;2023-03-01T08:29:58;64.28;;;25.73;;
60969;SDS011;46841;48.938;9.502;2023-03-01T08:32:24;65.90;;;25.75;;
60969;SDS011;46841;48.938;9.502;2023-03-01T08:34:49;73.97;;;27.45;;
60969;SDS011;46841;48.938;9.502;2023-03-01T08:37:14;63.90;;;26.88;;
60969;SDS011;46841;48.938;9.502;2023-03-01T08:39:39;58.47;;;25.38;;
60969;SDS011;46841;48.938;9.502;2023-03-01T08:42:05;61.38;;;25.02;;
60969;SDS011;46841;48.938;9.502;2023-03-01T08:44:30;59.45;;;25.60;;
60969;SDS011;46841;48.938;9.502;2023-03-01T08:46:55;73.05;;;28.23;;
60969;SDS011;46841;48.938;9.502;2023-03-01T08:49:22;74.38;;;28.77;;
60969;SDS011;46841;48.938;9.502;2023-03-01T08:51:48;62.55;;;26.25;;
60969;SDS011;46841;48.938;9.502;2023-03-01T08:54:15;64.93;;;24.42;;
60969;SDS011;46841;48.938;9.502;2023-03-01T08:56:41;63.67;;;26.17;;
60969;SDS011;46841;48.938;9.502;2023-03-01T08:59:07;68.00;;;26.58;;
60969;SDS011;46841;48.938;9.502;2023-03-01T09:01:32;59.53;;;25.27;;
60969;SDS011;46841;48.938;9.502;2023-03-01T09:03:57;69.25;;;27.23;;
60969;SDS011;46841;48.938;9.502;2023-03-01T09:06:23;65.25;;;27.20;;
60969;SDS011;46841;48.938;9.502;2023-03-01T09:08:49;61.42;;;26.70;;
60969;SDS011;46841;48.938;9.502;2023-03-01T09:11:15;69.20;;;28.00;;
60969;SDS011;46841;48.938;9.502;2023-03-01T09:13:41;64.80;;;27.23;;
60969;SDS011;46841;48.938;9.502;2023-03-01T09:16:07;68.22;;;26.30;;
60969;SDS011;46841;48.938;9.502;2023-03-01T09:18:32;60.03;;;26.00;;
60969;SDS011;46841;48.938;9.502;2023-03-01T09:21:09;61.63;;;25.52;;
60969;SDS011;46841;48.938;9.502;2023-03-01T09:23:35;60.17;;;24.98;;
60969;SDS011;46841;48.938;9.502;2023-03-01T09:26:04;66.10;;;26.35;;
60969;SDS011;46841;48.938;9.502;2023-03-01T09:28:30;61.70;;;25.33;;
60969;SDS011;46841;48.938;9.502;2023-03-01T09:30:59;63.33;;;26.83;;
60969;SDS011;46841;48.938;9.502;2023-03-01T09:33:25;55.17;;;25.40;;
60969;SDS011;46841;48.938;9.502;2023-03-01T09:35:55;60.45;;;25.52;;
60969;SDS011;46841;48.938;9.502;2023-03-01T09:38:20;66.03;;;25.23;;
60969;SDS011;46841;48.938;9.502;2023-03-01T09:40:45;57.90;;;25.80;;
60969;SDS011;46841;48.938;9.502;2023-03-01T09:45:56;64.28;;;26.30;;
60969;SDS011;46841;48.938;9.502;2023-03-01T09:48:25;57.15;;;25.38;;
60969;SDS011;46841;48.938;9.502;2023-03-01T09:53:17;57.27;;;25.77;;
60969;SDS011;46841;48.938;9.502;2023-03-01T09:56:04;61.65;;;24.65;;
60969;SDS011;46841;48.938;9.502;2023-03-01T10:00:56;57.35;;;26.58;;
60969;SDS011;46841;48.938;9.502;2023-03-01T10:06:05;69.78;;;28.58;;
60969;SDS011;46841;48.938;9.502;2023-03-01T10:08:38;56.70;;;25.53;;
60969;SDS011;46841;48.938;9.502;2023-03-01T10:11:15;54.22;;;23.95;;
60969;SDS011;46841;48.938;9.502;2023-03-01T10:13:54;55.17;;;24.45;;
60969;SDS011;46841;48.938;9.502;2023-03-01T10:16:54;59.42;;;26.70;;
60969;SDS011;46841;48.938;9.502;2023-03-01T10:19:14;56.88;;;24.63;;
60969;SDS011;46841;48.938;9.502;2023-03-01T10:21:41;61.13;;;27.13;;
60969;SDS011;46841;48.938;9.502;2023-03-01T10:24:12;55.22;;;24.20;;
60969;SDS011;46841;48.938;9.502;2023-03-01T10:29:07;53.40;;;24.92;;
60969;SDS011;46841;48.938;9.502;2023-03-01T10:31:54;54.45;;;24.65;;
60969;SDS011;46841;48.938;9.502;2023-03-01T10:34:19;55.20;;;24.92;;
60969;SDS011;46841;48.938;9.502;2023-03-01T10:36:50;58.13;;;24.90;;
60969;SDS011;46841;48.938;9.502;2023-03-01T10:39:20;60.53;;;25.17;;
60969;SDS011;46841;48.938;9.502;2023-03-01T10:41:59;57.63;;;24.38;;
60969;SDS011;46841;48.938;9.502;2023-03-01T10:47:23;61.63;;;26.45;;
60969;SDS011;46841;48.938;9.502;2023-03-01T10:50:00;51.55;;;23.77;;
60969;SDS011;46841;48.938;9.502;2023-03-01T10:52:34;54.03;;;25.15;;
60969;SDS011;46841;48.938;9.502;2023-03-01T10:55:42;56.63;;;26.17;;
60969;SDS011;46841;48.938;9.502;2023-03-01T10:57:48;50.08;;;23.23;;
60969;SDS011;46841;48.938;9.502;2023-03-01T11:00:23;51.90;;;23.27;;
60969;SDS011;46841;48.938;9.502;2023-03-01T11:02:50;52.28;;;25.63;;
60969;SDS011;46841;48.938;9.502;2023-03-01T11:05:18;50.50;;;22.52;;
60969;SDS011;46841;48.938;9.502;2023-03-01T11:07:50;49.35;;;23.70;;
60969;SDS011;46841;48.938;9.502;2023-03-01T11:10:17;46.05;;;22.75;;
60969;SDS011;46841;48.938;9.502;2023-03-01T11:12:43;49.35;;;22.55;;
60969;SDS011;46841;48.938;9.502;2023-03-01T11:15:08;50.15;;;23.77;;
60969;SDS011;46841;48.938;9.502;2023-03-01T11:17:44;48.67;;;23.15;;
60969;SDS011;46841;48.938;9.502;2023-03-01T11:20:15;50.80;;;22.42;;
60969;SDS011;46841;48.938;9.502;2023-03-01T11:22:45;49.55;;;23.38;;
60969;SDS011;46841;48.938;9.502;2023-03-01T11:25:11;54.75;;;23.27;;
60969;SDS011;46841;48.938;9.502;2023-03-01T11:27:40;50.35;;;21.50;;
60969;SDS011;46841;48.938;9.502;2023-03-01T11:35:17;42.85;;;21.55;;
60969;SDS011;46841;48.938;9.502;2023-03-01T11:37:50;68.30;;;23.92;;
60969;SDS011;46841;48.938;9.502;2023-03-01T11:40:24;43.70;;;21.13;;
60969;SDS011;46841;48.938;9.502;2023-03-01T11:45:15;41.67;;;21.92;;
60969;SDS011;46841;48.938;9.502;2023-03-01T11:50:35;46.28;;;22.40;;
60969;SDS011;46841;48.938;9.502;2023-03-01T11:58:41;45.88;;;23.02;;
60969;SDS011;46841;48.938;9.502;2023-03-01T12:10:56;51.97;;;23.58;;
60969;SDS011;46841;48.938;9.502;2023-03-01T12:23:38;48.78;;;25.67;;
60969;SDS011;46841;48.938;9.502;2023-03-01T12:26:10;47.63;;;25.13;;
60969;SDS011;46841;48.938;9.502;2023-03-01T12:34:01;53.38;;;26.05;;
60969;SDS011;46841;48.938;9.502;2023-03-01T12:49:31;52.00;;;26.60;;
60969;SDS011;46841;48.938;9.502;2023-03-01T12:52:04;51.38;;;26.17;;
60969;SDS011;46841;48.938;9.502;2023-03-01T12:54:35;50.08;;;25.77;;
60969;SDS011;46841;48.938;9.502;2023-03-01T12:57:08;49.83;;;27.80;;
60969;SDS011;46841;48.938;9.502;2023-03-01T12:59:58;46.17;;;26.17;;
60969;SDS011;46841;48.938;9.502;2023-03-01T13:02:34;53.53;;;26.25;;
60969;SDS011;46841;48.938;9.502;2023-03-01T13:05:15;49.40;;;25.77;;
60969;SDS011;46841;48.938;9.502;2023-03-01T13:10:34;56.30;;;30.20;;
60969;SDS011;46841;48.938;9.502;2023-03-01T13:13:18;55.92;;;29.10;;
60969;SDS011;46841;48.938;9.502;2023-03-01T13:15:44;54.80;;;27.67;;
60969;SDS011;46841;48.938;9.502;2023-03-01T13:23:11;60.20;;;31.08;;
60969;SDS011;46841;48.938;9.502;2023-03-01T13:30:59;51.28;;;27.73;;
60969;SDS011;46841;48.938;9.502;2023-03-01T13:35:53;55.47;;;30.83;;
60969;SDS011;46841;48.938;9.502;2023-03-01T13:41:04;55.85;;;29.98;;
60969;SDS011;46841;48.938;9.502;2023-03-01T13:43:31;54.55;;;27.67;;
60969;SDS011;46841;48.938;9.502;2023-03-01T13:45:57;54.88;;;29.48;;
60969;SDS011;46841;48.938;9.502;2023-03-01T13:48:27;54.55;;;28.30;;
60969;SDS011;46841;48.938;9.502;2023-03-01T13:50:57;55.45;;;28.95;;
60969;SDS011;46841;48.938;9.502;2023-03-01T13:53:25;62.25;;;33.35;;
60969;SDS011;46841;48.938;9.502;2023-03-01T13:55:52;55.15;;;28.92;;
60969;SDS011;46841;48.938;9.502;2023-03-01T14:00:54;60.53;;;29.40;;
60969;SDS011;46841;48.938;9.502;2023-03-01T14:03:20;57.53;;;29.52;;
60969;SDS011;46841;48.938;9.502;2023-03-01T14:06:03;57.90;;;30.23;;
60969;SDS011;46841;48.938;9.502;2023-03-01T14:08:32;62.55;;;33.78;;
60969;SDS011;46841;48.938;9.502;2023-03-01T14:21:21;57.78;;;28.13;;
60969;SDS011;46841;48.938;9.502;2023-03-01T14:23:47;55.53;;;27.60;;
60969;SDS011;46841;48.938;9.502;2023-03-01T14:26:13;54.25;;;27.05;;
60969;SDS011;46841;48.938;9.502;2023-03-01T14:28:38;52.47;;;27.42;;
60969;SDS011;46841;48.938;9.502;2023-03-01T14:31:29;57.47;;;32.70;;
60969;SDS011;46841;48.938;9.502;2023-03-01T14:33:56;54.75;;;28.25;;
60969;SDS011;46841;48.938;9.502;2023-03-01T14:36:26;49.70;;;27.17;;
60969;SDS011;46841;48.938;9.502;2023-03-01T14:38:51;53.88;;;28.08;;
60969;SDS011;46841;48.938;9.502;2023-03-01T14:41:21;49.42;;;26.25;;
60969;SDS011;46841;48.938;9.502;2023-03-01T14:43:50;50.00;;;27.20;;
60969;SDS011;46841;48.938;9.502;2023-03-01T14:46:35;57.03;;;29.42;;
60969;SDS011;46841;48.938;9.502;2023-03-01T14:49:11;58.97;;;29.15;;
60969;SDS011;46841;48.938;9.502;2023-03-01T14:51:38;47.13;;;27.37;;
60969;SDS011;46841;48.938;9.502;2023-03-01T14:54:04;53.33;;;28.55;;
60969;SDS011;46841;48.938;9.502;2023-03-01T14:56:42;64.47;;;31.58;;
60969;SDS011;46841;48.938;9.502;2023-03-01T14:59:08;56.47;;;27.95;;
60969;SDS011;46841;48.938;9.502;2023-03-01T15:01:34;52.90;;;27.40;;
60969;SDS011;46841;48.938;9.502;2023-03-01T15:03:59;54.97;;;28.98;;
60969;SDS011;46841;48.938;9.502;2023-03-01T15:06:26;52.03;;;27.00;;
60969;SDS011;46841;48.938;9.502;2023-03-01T15:08:52;56.65;;;28.00;;
60969;SDS011;46841;48.938;9.502;2023-03-01T15:13:44;50.33;;;26.70;;
60969;SDS011;46841;48.938;9.502;2023-03-01T15:16:15;49.33;;;25.45;;
60969;SDS011;46841;48.938;9.502;2023-03-01T15:18:48;48.83;;;25.33;;
60969;SDS011;46841;48.938;9.502;2023-03-01T15:21:18;52.72;;;27.88;;
60969;SDS011;46841;48.938;9.502;2023-03-01T15:23:49;48.28;;;25.98;;
60969;SDS011;46841;48.938;9.502;2023-03-01T15:26:22;53.15;;;26.85;;
60969;SDS011;46841;48.938;9.502;2023-03-01T15:28:52;53.75;;;30.20;;
60969;SDS011;46841;48.938;9.502;2023-03-01T15:31:19;52.25;;;25.90;;
60969;SDS011;46841;48.938;9.502;2023-03-01T15:33:45;45.08;;;24.55;;
60969;SDS011;46841;48.938;9.502;2023-03-01T15:36:31;57.38;;;26.63;;
60969;SDS011;46841;48.938;9.502;2023-03-01T15:38:58;50.15;;;25.90;;
60969;SDS011;46841;48.938;9.502;2023-03-01T15:43:50;51.38;;;27.85;;
60969;SDS011;46841;48.938;9.502;2023-03-01T15:48:49;48.38;;;26.02;;
60969;SDS011;46841;48.938;9.502;2023-03-01T15:51:17;50.97;;;25.42;;
60969;SDS011;46841;48.938;9.502;2023-03-01T15:53:49;52.53;;;25.33;;
60969;SDS011;46841;48.938;9.502;2023-03-01T15:56:15;56.63;;;27.23;;
60969;SDS011;46841;48.938;9.502;2023-03-01T15:58:40;50.97;;;24.65;;
60969;SDS011;46841;48.938;9.502;2023-03-01T16:01:09;52.72;;;24.90;;
60969;SDS011;46841;48.938;9.502;2023-03-01T16:03:37;51.00;;;25.23;;
60969;SDS011;46841;48.938;9.502;2023-03-01T16:06:03;48.50;;;25.05;;
60969;SDS011;46841;48.938;9.502;2023-03-01T16:08:28;49.03;;;23.90;;
60969;SDS011;46841;48.938;9.502;2023-03-01T16:10:54;47.63;;;24.95;;
60969;SDS011;46841;48.938;9.502;2023-03-01T16:13:20;46.72;;;24.45;;
60969;SDS011;46841;48.938;9.502;2023-03-01T16:15:49;55.40;;;24.40;;
60969;SDS011;46841;48.938;9.502;2023-03-01T16:18:14;47.35;;;23.50;;
60969;SDS011;46841;48.938;9.502;2023-03-01T16:20:40;49.97;;;24.00;;
60969;SDS011;46841;48.938;9.502;2023-03-01T16:23:06;51.00;;;24.02;;
60969;SDS011;46841;48.938;9.502;2023-03-01T16:25:32;49.38;;;24.17;;
60969;SDS011;46841;48.938;9.502;2023-03-01T16:27:57;48.92;;;22.98;;